createdAt,value
2019-02-04T00:05:26.922Z,4.17
2019-02-04T00:15:32.428Z,4.10
2019-02-04T00:25:37.851Z,6.13
2019-02-04T00:35:43.539Z,10.53
2019-02-04T00:45:49.293Z,3.83
2019-02-04T00:55:54.673Z,3.30
2019-02-04T01:06:02.485Z,3.60
2019-02-04T01:16:09.080Z,3.30
2019-02-04T01:26:14.750Z,3.50
2019-02-04T01:36:22.519Z,3.10
2019-02-04T01:46:28.427Z,3.27
2019-02-04T01:56:33.897Z,3.00
2019-02-04T02:06:39.304Z,3.37
2019-02-04T02:16:46.511Z,3.67
2019-02-04T02:26:52.054Z,3.33
2019-02-04T02:36:57.474Z,3.47
2019-02-04T02:47:02.831Z,3.17
2019-02-04T02:57:08.324Z,3.03
2019-02-04T03:07:13.810Z,2.90
2019-02-04T03:17:19.252Z,2.97
2019-02-04T03:27:24.803Z,2.90
2019-02-04T03:37:30.284Z,2.80
2019-02-04T03:47:35.712Z,2.70
2019-02-04T03:57:44.528Z,2.70
2019-02-04T04:07:50.125Z,2.47
2019-02-04T04:17:55.473Z,2.70
2019-02-04T04:28:00.858Z,2.77
2019-02-04T04:38:06.294Z,2.70
2019-02-04T04:48:13.082Z,2.60
2019-02-04T04:58:18.462Z,2.53
2019-02-04T05:08:23.984Z,2.50
2019-02-04T05:18:37.710Z,2.27
2019-02-04T05:28:36.643Z,2.27
2019-02-04T05:38:42.045Z,2.67
2019-02-04T05:48:49.685Z,2.40
2019-02-04T05:58:55.424Z,2.20
2019-02-04T06:09:00.744Z,2.20
2019-02-04T06:19:06.445Z,2.10
2019-02-04T06:29:11.882Z,2.00
2019-02-04T06:39:17.335Z,2.33
2019-02-04T06:49:22.830Z,4.10
2019-02-04T06:59:28.536Z,2.50
2019-02-04T07:09:33.926Z,2.73
2019-02-04T07:19:39.776Z,3.10
2019-02-04T07:29:45.593Z,3.07
2019-02-04T07:39:51.643Z,3.43
2019-02-04T07:49:57.080Z,3.23
2019-02-04T08:00:02.647Z,4.93
2019-02-04T08:10:09.144Z,4.60
2019-02-04T08:20:14.716Z,4.50
2019-02-04T08:30:29.362Z,5.23
2019-02-04T08:40:34.801Z,5.60
2019-02-04T08:50:40.560Z,5.00
2019-02-04T09:00:45.962Z,4.23
2019-02-04T09:10:51.416Z,3.80
2019-02-04T09:20:56.835Z,3.97
2019-02-04T09:31:02.197Z,3.20
2019-02-04T09:41:07.581Z,3.33
2019-02-04T09:51:12.995Z,3.40
2019-02-04T10:01:18.362Z,3.40
2019-02-04T10:11:25.149Z,2.70
2019-02-04T10:21:30.557Z,3.17
2019-02-04T10:31:36.093Z,3.23
2019-02-04T10:41:41.539Z,2.80
2019-02-04T10:51:46.961Z,3.20
2019-02-04T11:01:52.440Z,3.03
2019-02-04T11:11:57.823Z,2.93
2019-02-04T11:22:03.155Z,2.90
2019-02-04T11:32:08.623Z,2.73
2019-02-04T11:42:14.021Z,2.80
2019-02-04T11:52:20.719Z,2.90
2019-02-04T12:02:34.362Z,2.60
2019-02-04T12:12:33.090Z,2.37
2019-02-04T12:22:38.401Z,2.40
2019-02-04T12:32:43.720Z,2.67
2019-02-04T12:42:49.115Z,2.30
2019-02-04T12:52:54.644Z,2.70
2019-02-04T13:03:00.018Z,2.33
2019-02-04T13:13:07.927Z,2.57
2019-02-04T13:23:13.424Z,2.20
2019-02-04T13:33:19.825Z,2.37
2019-02-04T13:43:25.218Z,2.17
2019-02-04T13:53:30.847Z,2.20
2019-02-04T14:03:36.263Z,2.30
2019-02-04T14:13:41.858Z,2.37
2019-02-04T14:23:47.157Z,2.23
2019-02-04T14:33:53.286Z,2.43
2019-02-04T14:44:40.655Z,2.00
2019-02-04T14:55:50.352Z,2.10
2019-02-04T15:07:00.454Z,2.27
2019-02-04T15:17:22.778Z,2.10
2019-02-04T15:28:31.392Z,1.90
2019-02-04T15:39:21.229Z,2.00
2019-02-04T15:51:03.152Z,2.07
2019-02-04T16:01:08.534Z,1.97
2019-02-04T16:11:13.832Z,1.90
2019-02-04T16:21:19.140Z,1.90
2019-02-04T16:31:24.515Z,1.80
2019-02-04T16:41:29.839Z,1.80
2019-02-04T16:51:35.236Z,2.00
2019-02-04T17:01:40.573Z,1.70
2019-02-04T17:11:45.915Z,1.90
2019-02-04T17:21:51.761Z,1.77
2019-02-04T17:32:00.398Z,1.67
2019-02-04T17:42:05.291Z,1.77
2019-02-04T17:52:10.628Z,1.67
2019-02-04T18:02:16.000Z,1.60
2019-02-04T18:12:21.705Z,1.70
2019-02-04T18:22:27.026Z,1.57
2019-02-04T18:32:32.452Z,1.90
2019-02-04T18:42:38.121Z,1.67
2019-02-04T18:52:43.468Z,1.90
2019-02-04T19:02:49.180Z,1.80
2019-02-04T19:12:56.051Z,1.60
2019-02-04T19:23:01.375Z,1.70
2019-02-04T19:33:06.849Z,1.63
2019-02-04T19:43:12.316Z,1.90
2019-02-04T19:53:17.737Z,1.80
2019-02-04T20:03:23.042Z,1.70
2019-02-04T20:13:28.445Z,1.63
2019-02-04T20:23:33.935Z,1.70
2019-02-04T20:33:39.286Z,1.80
2019-02-04T20:43:44.866Z,1.80
2019-02-04T20:53:50.197Z,1.50
2019-02-04T21:03:55.685Z,1.77
2019-02-04T21:14:03.750Z,1.60
2019-02-04T21:24:09.144Z,1.80
2019-02-04T21:34:14.492Z,1.77
2019-02-04T21:44:19.865Z,1.97
2019-02-04T21:54:25.210Z,1.77
2019-02-04T22:04:30.512Z,1.83
2019-02-04T22:14:36.099Z,1.70
2019-02-04T22:24:41.433Z,1.60
2019-02-04T22:34:46.741Z,1.70
2019-02-04T22:44:52.344Z,1.77
2019-02-04T22:54:57.867Z,2.00
2019-02-04T23:05:03.242Z,1.70
2019-02-04T23:15:11.135Z,1.90
2019-02-04T23:25:16.446Z,1.90
2019-02-04T23:35:23.911Z,1.70
2019-02-04T23:45:29.467Z,1.60
2019-02-04T23:55:35.312Z,1.77
